sensor_id;sensor_type;location;lat;lon;timestamp;pressure;altitude;pressure_sealevel;temperature;humidity
43838;BME280;65998;46.256;7.534;2023-07-08T00:00:47;87537.53;;;22.23;57.73
43838;BME280;65998;46.256;7.534;2023-07-08T00:03:33;87536.16;;;22.22;57.66
43838;BME280;65998;46.256;7.534;2023-07-08T00:06:00;87534.06;;;22.23;57.93
43838;BME280;65998;46.256;7.534;2023-07-08T00:08:25;87538.97;;;22.22;57.87
43838;BME280;65998;46.256;7.534;2023-07-08T00:10:51;87541.09;;;22.22;57.70
43838;BME280;65998;46.256;7.534;2023-07-08T00:13:17;87545.25;;;22.23;57.95
43838;BME280;65998;46.256;7.534;2023-07-08T00:15:43;87534.13;;;22.21;57.85
43838;BME280;65998;46.256;7.534;2023-07-08T00:18:16;87528.53;;;22.21;58.11
43838;BME280;65998;46.256;7.534;2023-07-08T00:20:48;87536.25;;;22.20;57.75
43838;BME280;65998;46.256;7.534;2023-07-08T00:23:14;87523.03;;;22.19;58.33
43838;BME280;65998;46.256;7.534;2023-07-08T00:25:41;87532.09;;;22.19;58.11
43838;BME280;65998;46.256;7.534;2023-07-08T00:28:16;87523.03;;;22.19;57.98
43838;BME280;65998;46.256;7.534;2023-07-08T00:30:42;87518.88;;;22.18;58.40
43838;BME280;65998;46.256;7.534;2023-07-08T00:33:08;87519.56;;;22.18;58.32
43838;BME280;65998;46.256;7.534;2023-07-08T00:35:36;87518.09;;;22.19;58.30
43838;BME280;65998;46.256;7.534;2023-07-08T00:38:26;87517.44;;;22.19;58.39
43838;BME280;65998;46.256;7.534;2023-07-08T00:43:36;87518.09;;;22.19;58.24
43838;BME280;65998;46.256;7.534;2023-07-08T00:51:44;87513.28;;;22.18;58.32
43838;BME280;65998;46.256;7.534;2023-07-08T00:54:15;87513.28;;;22.18;58.36
43838;BME280;65998;46.256;7.534;2023-07-08T00:59:23;87513.94;;;22.18;58.20
43838;BME280;65998;46.256;7.534;2023-07-08T01:01:51;87509.13;;;22.17;58.46
43838;BME280;65998;46.256;7.534;2023-07-08T01:04:22;87512.59;;;22.17;58.51
43838;BME280;65998;46.256;7.534;2023-07-08T01:06:55;87507.00;;;22.17;58.32
43838;BME280;65998;46.256;7.534;2023-07-08T01:09:31;87508.34;;;22.18;58.68
43838;BME280;65998;46.256;7.534;2023-07-08T01:12:02;87510.47;;;22.18;58.37
43838;BME280;65998;46.256;7.534;2023-07-08T01:14:31;87509.88;;;22.15;58.73
43838;BME280;65998;46.256;7.534;2023-07-08T01:16:58;87512.69;;;22.15;58.80
43838;BME280;65998;46.256;7.534;2023-07-08T01:19:25;87507.75;;;22.16;58.60
43838;BME280;65998;46.256;7.534;2023-07-08T01:24:19;87513.53;;;22.12;57.08
43838;BME280;65998;46.256;7.534;2023-07-08T01:26:46;87515.25;;;22.05;55.94
43838;BME280;65998;46.256;7.534;2023-07-08T01:29:12;87515.91;;;22.05;56.00
43838;BME280;65998;46.256;7.534;2023-07-08T01:31:39;87512.25;;;22.09;56.02
43838;BME280;65998;46.256;7.534;2023-07-08T01:34:05;87517.00;;;22.12;56.22
43838;BME280;65998;46.256;7.534;2023-07-08T01:36:34;87521.06;;;22.15;55.85
43838;BME280;65998;46.256;7.534;2023-07-08T01:39:02;87518.09;;;22.19;55.76
43838;BME280;65998;46.256;7.534;2023-07-08T01:41:28;87527.78;;;22.22;55.59
43838;BME280;65998;46.256;7.534;2023-07-08T01:43:54;87519.28;;;22.24;55.43
43838;BME280;65998;46.256;7.534;2023-07-08T01:46:23;87515.03;;;22.25;55.26
43838;BME280;65998;46.256;7.534;2023-07-08T01:48:54;87512.16;;;22.27;55.02
43838;BME280;65998;46.256;7.534;2023-07-08T01:51:23;87513.50;;;22.28;54.93
43838;BME280;65998;46.256;7.534;2023-07-08T01:53:49;87512.06;;;22.29;54.72
43838;BME280;65998;46.256;7.534;2023-07-08T01:56:15;87503.66;;;22.29;54.43
43838;BME280;65998;46.256;7.534;2023-07-08T01:58:41;87503.66;;;22.29;54.62
43838;BME280;65998;46.256;7.534;2023-07-08T02:01:08;87502.91;;;22.31;54.69
43838;BME280;65998;46.256;7.534;2023-07-08T02:03:34;87495.28;;;22.29;54.36
43838;BME280;65998;46.256;7.534;2023-07-08T02:06:01;87500.88;;;22.29;54.34
43838;BME280;65998;46.256;7.534;2023-07-08T02:08:26;87497.38;;;22.29;54.13
43838;BME280;65998;46.256;7.534;2023-07-08T02:10:57;87497.38;;;22.29;54.16
43838;BME280;65998;46.256;7.534;2023-07-08T02:13:24;87499.50;;;22.28;54.03
43838;BME280;65998;46.256;7.534;2023-07-08T02:15:50;87495.34;;;22.27;54.14
43838;BME280;65998;46.256;7.534;2023-07-08T02:18:16;87490.53;;;22.26;54.43
43838;BME280;65998;46.256;7.534;2023-07-08T02:20:43;87489.84;;;22.25;54.05
43838;BME280;65998;46.256;7.534;2023-07-08T02:23:08;87488.50;;;22.24;53.88
43838;BME280;65998;46.256;7.534;2023-07-08T02:25:34;87500.47;;;22.23;53.64
43838;BME280;65998;46.256;7.534;2023-07-08T02:28:00;87494.84;;;22.23;53.79
43838;BME280;65998;46.256;7.534;2023-07-08T02:30:26;87497.66;;;22.23;54.05
43838;BME280;65998;46.256;7.534;2023-07-08T02:32:52;87496.97;;;22.22;53.88
43838;BME280;65998;46.256;7.534;2023-07-08T02:35:18;87490.78;;;22.20;53.88
43838;BME280;65998;46.256;7.534;2023-07-08T02:37:44;87481.72;;;22.19;53.65
43838;BME280;65998;46.256;7.534;2023-07-08T02:40:10;87484.53;;;22.19;53.58
43838;BME280;65998;46.256;7.534;2023-07-08T02:42:36;87483.16;;;22.18;53.54
43838;BME280;65998;46.256;7.534;2023-07-08T02:45:02;87480.44;;;22.16;53.58
43838;BME280;65998;46.256;7.534;2023-07-08T02:47:28;87473.50;;;22.15;53.57
43838;BME280;65998;46.256;7.534;2023-07-08T02:49:54;87471.47;;;22.14;53.47
43838;BME280;65998;46.256;7.534;2023-07-08T02:52:20;87477.75;;;22.14;53.59
43838;BME280;65998;46.256;7.534;2023-07-08T02:54:46;87462.38;;;22.13;53.44
43838;BME280;65998;46.256;7.534;2023-07-08T02:57:11;87458.91;;;22.13;53.43
43838;BME280;65998;46.256;7.534;2023-07-08T02:59:37;87455.53;;;22.10;53.51
43838;BME280;65998;46.256;7.534;2023-07-08T03:02:03;87454.84;;;22.10;53.53
43838;BME280;65998;46.256;7.534;2023-07-08T03:04:29;87462.56;;;22.09;53.36
43838;BME280;65998;46.256;7.534;2023-07-08T03:06:55;87462.56;;;22.09;53.56
43838;BME280;65998;46.256;7.534;2023-07-08T03:09:21;87466.13;;;22.08;53.46
43838;BME280;65998;46.256;7.534;2023-07-08T03:11:47;87471.06;;;22.07;53.56
43838;BME280;65998;46.256;7.534;2023-07-08T03:14:13;87475.97;;;22.07;53.55
43838;BME280;65998;46.256;7.534;2023-07-08T03:16:38;87471.13;;;22.05;53.70
43838;BME280;65998;46.256;7.534;2023-07-08T03:19:04;87473.25;;;22.05;53.09
43838;BME280;65998;46.256;7.534;2023-07-08T03:21:30;87469.78;;;22.04;53.11
43838;BME280;65998;46.256;7.534;2023-07-08T03:23:56;87472.59;;;22.04;53.19
43838;BME280;65998;46.256;7.534;2023-07-08T03:26:24;87471.22;;;22.03;53.20
43838;BME280;65998;46.256;7.534;2023-07-08T03:28:50;87472.66;;;22.02;53.27
43838;BME280;65998;46.256;7.534;2023-07-08T03:31:16;87472.66;;;22.02;53.13
43838;BME280;65998;46.256;7.534;2023-07-08T03:33:43;87479.69;;;22.01;53.06
43838;BME280;65998;46.256;7.534;2023-07-08T03:36:14;87481.81;;;22.01;53.20
43838;BME280;65998;46.256;7.534;2023-07-08T03:38:41;87487.41;;;22.01;53.11
43838;BME280;65998;46.256;7.534;2023-07-08T03:41:07;87491.66;;;21.99;52.96
43838;BME280;65998;46.256;7.534;2023-07-08T03:43:33;87481.91;;;21.98;52.87
43838;BME280;65998;46.256;7.534;2023-07-08T03:45:58;87488.16;;;21.99;52.79
43838;BME280;65998;46.256;7.534;2023-07-08T03:48:25;87490.28;;;21.98;53.16
43838;BME280;65998;46.256;7.534;2023-07-08T03:50:50;87489.59;;;21.98;52.94
43838;BME280;65998;46.256;7.534;2023-07-08T03:53:16;87486.91;;;21.96;53.16
43838;BME280;65998;46.256;7.534;2023-07-08T03:55:42;87487.56;;;21.96;53.31
43838;BME280;65998;46.256;7.534;2023-07-08T03:58:08;87489.59;;;21.98;53.26
43838;BME280;65998;46.256;7.534;2023-07-08T04:00:33;87486.22;;;21.95;53.59
43838;BME280;65998;46.256;7.534;2023-07-08T04:02:59;87486.22;;;21.95;53.64
43838;BME280;65998;46.256;7.534;2023-07-08T04:05:25;87491.13;;;21.95;53.68
43838;BME280;65998;46.256;7.534;2023-07-08T04:07:52;87496.75;;;21.95;54.24
43838;BME280;65998;46.256;7.534;2023-07-08T04:10:18;87502.34;;;21.95;53.98
43838;BME280;65998;46.256;7.534;2023-07-08T04:12:44;87503.78;;;21.94;54.19
43838;BME280;65998;46.256;7.534;2023-07-08T04:15:11;87504.44;;;21.94;54.43
43838;BME280;65998;46.256;7.534;2023-07-08T04:17:42;87519.88;;;21.93;54.33
43838;BME280;65998;46.256;7.534;2023-07-08T04:20:09;87523.38;;;21.94;54.81
43838;BME280;65998;46.256;7.534;2023-07-08T04:22:36;87528.28;;;21.93;54.95
43838;BME280;65998;46.256;7.534;2023-07-08T04:25:01;87531.84;;;21.92;54.81
43838;BME280;65998;46.256;7.534;2023-07-08T04:27:27;87531.16;;;21.91;54.80
43838;BME280;65998;46.256;7.534;2023-07-08T04:29:53;87540.22;;;21.92;54.51
43838;BME280;65998;46.256;7.534;2023-07-08T04:32:19;87541.59;;;21.93;54.65
43838;BME280;65998;46.256;7.534;2023-07-08T04:34:45;87528.38;;;21.91;54.39
43838;BME280;65998;46.256;7.534;2023-07-08T04:37:11;87532.59;;;21.90;54.43
43838;BME280;65998;46.256;7.534;2023-07-08T04:39:37;87531.25;;;21.89;54.32
43838;BME280;65998;46.256;7.534;2023-07-08T04:42:03;87537.53;;;21.90;54.14
43838;BME280;65998;46.256;7.534;2023-07-08T04:44:28;87538.97;;;21.89;54.08
43838;BME280;65998;46.256;7.534;2023-07-08T04:46:56;87529.88;;;21.88;54.21
43838;BME280;65998;46.256;7.534;2023-07-08T04:49:22;87538.28;;;21.88;54.17
43838;BME280;65998;46.256;7.534;2023-07-08T04:51:50;87541.16;;;21.86;54.23
43838;BME280;65998;46.256;7.534;2023-07-08T04:54:16;87539.72;;;21.87;54.04
43838;BME280;65998;46.256;7.534;2023-07-08T04:56:47;87542.53;;;21.87;53.97
43838;BME280;65998;46.256;7.534;2023-07-08T04:59:18;87546.09;;;21.86;53.92
43838;BME280;65998;46.256;7.534;2023-07-08T05:01:44;87553.81;;;21.85;53.97
43838;BME280;65998;46.256;7.534;2023-07-08T05:04:14;87555.91;;;21.85;53.89
43838;BME280;65998;46.256;7.534;2023-07-08T05:06:41;87557.34;;;21.84;54.21
43838;BME280;65998;46.256;7.534;2023-07-08T05:09:07;87551.00;;;21.85;53.98
43838;BME280;65998;46.256;7.534;2023-07-08T05:11:34;87547.53;;;21.85;54.10
43838;BME280;65998;46.256;7.534;2023-07-08T05:14:01;87549.63;;;21.84;54.32
43838;BME280;65998;46.256;7.534;2023-07-08T05:16:28;87542.00;;;21.83;54.28
43838;BME280;65998;46.256;7.534;2023-07-08T05:18:53;87536.41;;;21.83;54.29
43838;BME280;65998;46.256;7.534;2023-07-08T05:21:20;87536.41;;;21.83;54.35
43838;BME280;65998;46.256;7.534;2023-07-08T05:23:47;87538.50;;;21.82;54.51
43838;BME280;65998;46.256;7.534;2023-07-08T05:26:13;87537.84;;;21.82;54.75
43838;BME280;65998;46.256;7.534;2023-07-08T05:28:38;87537.16;;;21.81;54.90
43838;BME280;65998;46.256;7.534;2023-07-08T05:31:04;87537.16;;;21.81;54.83
43838;BME280;65998;46.256;7.534;2023-07-08T05:33:31;87534.34;;;21.81;55.09
43838;BME280;65998;46.256;7.534;2023-07-08T05:35:57;87534.34;;;21.81;54.92
43838;BME280;65998;46.256;7.534;2023-07-08T05:38:23;87539.28;;;21.81;55.24
43838;BME280;65998;46.256;7.534;2023-07-08T05:40:50;87532.31;;;21.80;55.44
43838;BME280;65998;46.256;7.534;2023-07-08T05:43:17;87534.44;;;21.79;55.29
43838;BME280;65998;46.256;7.534;2023-07-08T05:45:43;87546.31;;;21.80;55.30
43838;BME280;65998;46.256;7.534;2023-07-08T05:48:10;87539.34;;;21.79;55.33
43838;BME280;65998;46.256;7.534;2023-07-08T05:50:35;87542.16;;;21.79;55.63
43838;BME280;65998;46.256;7.534;2023-07-08T05:53:01;87538.00;;;21.78;55.47
43838;BME280;65998;46.256;7.534;2023-07-08T05:55:27;87537.31;;;21.77;54.91
43838;BME280;65998;46.256;7.534;2023-07-08T05:57:53;87537.31;;;21.77;54.89
43838;BME280;65998;46.256;7.534;2023-07-08T06:00:19;87540.81;;;21.78;55.03
43838;BME280;65998;46.256;7.534;2023-07-08T06:02:45;87538.75;;;21.76;55.43
43838;BME280;65998;46.256;7.534;2023-07-08T06:05:11;87533.84;;;21.77;55.10
43838;BME280;65998;46.256;7.534;2023-07-08T06:07:37;87540.13;;;21.77;55.27
43838;BME280;65998;46.256;7.534;2023-07-08T06:10:04;87535.97;;;21.76;55.48
43838;BME280;65998;46.256;7.534;2023-07-08T06:12:30;87538.75;;;21.76;55.58
43838;BME280;65998;46.256;7.534;2023-07-08T06:14:56;87533.16;;;21.76;55.51
43838;BME280;65998;46.256;7.534;2023-07-08T06:17:22;87535.97;;;21.76;55.72
43838;BME280;65998;46.256;7.534;2023-07-08T06:19:48;87535.97;;;21.76;55.80
43838;BME280;65998;46.256;7.534;2023-07-08T06:22:15;87545.72;;;21.77;55.83
43838;BME280;65998;46.256;7.534;2023-07-08T06:24:41;87561.22;;;21.74;56.08
43838;BME280;65998;46.256;7.534;2023-07-08T06:27:07;87556.72;;;21.64;56.14
43838;BME280;65998;46.256;7.534;2023-07-08T06:29:34;87543.22;;;21.52;55.81
43838;BME280;65998;46.256;7.534;2023-07-08T06:32:01;87549.91;;;21.43;55.61
43838;BME280;65998;46.256;7.534;2023-07-08T06:34:27;87550.22;;;21.34;55.73
43838;BME280;65998;46.256;7.534;2023-07-08T06:36:53;87549.78;;;21.28;55.35
43838;BME280;65998;46.256;7.534;2023-07-08T06:39:19;87551.44;;;21.21;55.24
43838;BME280;65998;46.256;7.534;2023-07-08T06:41:46;87555.16;;;21.15;55.72
43838;BME280;65998;46.256;7.534;2023-07-08T06:44:11;87547.59;;;21.12;55.46
43838;BME280;65998;46.256;7.534;2023-07-08T06:46:38;87540.16;;;21.06;55.63
43838;BME280;65998;46.256;7.534;2023-07-08T06:49:03;87542.41;;;21.01;55.49
43838;BME280;65998;46.256;7.534;2023-07-08T06:51:30;87551.63;;;20.98;55.63
43838;BME280;65998;46.256;7.534;2023-07-08T06:53:56;87551.03;;;20.95;55.29
43838;BME280;65998;46.256;7.534;2023-07-08T06:56:22;87553.22;;;20.93;55.23
43838;BME280;65998;46.256;7.534;2023-07-08T06:58:48;87561.00;;;20.90;55.68
43838;BME280;65998;46.256;7.534;2023-07-08T07:01:14;87559.03;;;20.87;55.46
43838;BME280;65998;46.256;7.534;2023-07-08T07:03:40;87560.56;;;20.84;55.66
43838;BME280;65998;46.256;7.534;2023-07-08T07:06:07;87568.25;;;20.83;55.54
43838;BME280;65998;46.256;7.534;2023-07-08T07:08:33;87569.69;;;20.82;55.68
43838;BME280;65998;46.256;7.534;2023-07-08T07:10:59;87582.34;;;20.79;55.47
43838;BME280;65998;46.256;7.534;2023-07-08T07:13:25;87585.88;;;20.78;55.71
43838;BME280;65998;46.256;7.534;2023-07-08T07:15:51;87578.25;;;20.76;56.11
43838;BME280;65998;46.256;7.534;2023-07-08T07:18:17;87588.75;;;20.76;56.12
43838;BME280;65998;46.256;7.534;2023-07-08T07:20:49;87587.47;;;20.72;56.12
43838;BME280;65998;46.256;7.534;2023-07-08T07:23:15;87586.78;;;20.72;56.13
43838;BME280;65998;46.256;7.534;2023-07-08T07:25:41;87592.38;;;20.72;56.10
43838;BME280;65998;46.256;7.534;2023-07-08T07:28:07;87589.66;;;20.70;56.13
43838;BME280;65998;46.256;7.534;2023-07-08T07:30:33;87595.31;;;20.68;56.28
43838;BME280;65998;46.256;7.534;2023-07-08T07:32:59;87604.38;;;20.68;56.43
43838;BME280;65998;46.256;7.534;2023-07-08T07:35:26;87596.69;;;20.69;56.12
43838;BME280;65998;46.256;7.534;2023-07-08T07:37:52;87596.69;;;20.69;56.09
43838;BME280;65998;46.256;7.534;2023-07-08T07:40:18;87596.75;;;20.67;56.32
43838;BME280;65998;46.256;7.534;2023-07-08T07:42:45;87594.72;;;20.65;56.34
43838;BME280;65998;46.256;7.534;2023-07-08T07:45:13;87599.63;;;20.65;56.27
43838;BME280;65998;46.256;7.534;2023-07-08T07:47:39;87603.84;;;20.64;56.55
43838;BME280;65998;46.256;7.534;2023-07-08T07:50:07;87609.34;;;20.66;56.80
43838;BME280;65998;46.256;7.534;2023-07-08T07:52:34;87607.25;;;20.66;57.01
43838;BME280;65998;46.256;7.534;2023-07-08T07:55:01;87614.19;;;20.67;57.02
43838;BME280;65998;46.256;7.534;2023-07-08T07:57:27;87612.06;;;20.68;57.34
43838;BME280;65998;46.256;7.534;2023-07-08T07:59:54;87603.03;;;20.67;57.32
43838;BME280;65998;46.256;7.534;2023-07-08T08:02:19;87612.06;;;20.68;57.64
43838;BME280;65998;46.256;7.534;2023-07-08T08:04:46;87604.31;;;20.70;57.70
43838;BME280;65998;46.256;7.534;2023-07-08T08:07:12;87607.03;;;20.72;57.80
43838;BME280;65998;46.256;7.534;2023-07-08T08:09:38;87607.63;;;20.75;57.34
43838;BME280;65998;46.256;7.534;2023-07-08T08:12:06;87613.75;;;20.80;57.37
43838;BME280;65998;46.256;7.534;2023-07-08T08:14:33;87616.34;;;20.86;57.40
43838;BME280;65998;46.256;7.534;2023-07-08T08:16:59;87611.88;;;20.93;57.43
43838;BME280;65998;46.256;7.534;2023-07-08T08:19:25;87609.69;;;20.95;57.54
43838;BME280;65998;46.256;7.534;2023-07-08T08:21:51;87610.31;;;20.98;57.59
43838;BME280;65998;46.256;7.534;2023-07-08T08:24:18;87614.38;;;21.01;57.82
43838;BME280;65998;46.256;7.534;2023-07-08T08:26:44;87614.97;;;21.03;58.03
43838;BME280;65998;46.256;7.534;2023-07-08T08:29:10;87605.09;;;21.07;57.67
43838;BME280;65998;46.256;7.534;2023-07-08T08:31:36;87601.47;;;21.10;57.63
43838;BME280;65998;46.256;7.534;2023-07-08T08:34:02;87604.19;;;21.12;57.69
43838;BME280;65998;46.256;7.534;2023-07-08T08:36:28;87601.31;;;21.14;57.65
43838;BME280;65998;46.256;7.534;2023-07-08T08:38:54;87599.13;;;21.17;57.90
43838;BME280;65998;46.256;7.534;2023-07-08T08:41:34;87592.78;;;21.18;57.64
43838;BME280;65998;46.256;7.534;2023-07-08T08:44:02;87591.94;;;21.22;57.60
43838;BME280;65998;46.256;7.534;2023-07-08T08:46:58;87593.31;;;21.23;57.19
43838;BME280;65998;46.256;7.534;2023-07-08T08:49:32;87590.44;;;21.25;57.44
43838;BME280;65998;46.256;7.534;2023-07-08T08:51:59;87595.28;;;21.26;57.42
43838;BME280;65998;46.256;7.534;2023-07-08T08:54:26;87598.00;;;21.28;57.64
43838;BME280;65998;46.256;7.534;2023-07-08T09:02:36;87595.56;;;21.37;58.66
43838;BME280;65998;46.256;7.534;2023-07-08T09:05:07;87592.00;;;21.39;58.66
43838;BME280;65998;46.256;7.534;2023-07-08T09:13:44;87589.13;;;21.41;57.39
43838;BME280;65998;46.256;7.534;2023-07-08T09:18:58;87596.59;;;21.46;56.42
43838;BME280;65998;46.256;7.534;2023-07-08T09:22:11;87595.75;;;21.50;56.01
43838;BME280;65998;46.256;7.534;2023-07-08T09:24:45;87601.88;;;21.54;55.67
43838;BME280;65998;46.256;7.534;2023-07-08T09:27:14;87594.09;;;21.57;56.18
43838;BME280;65998;46.256;7.534;2023-07-08T09:29:40;87599.50;;;21.61;56.25
43838;BME280;65998;46.256;7.534;2023-07-08T09:32:27;87600.03;;;21.65;56.35
43838;BME280;65998;46.256;7.534;2023-07-08T09:35:04;87600.63;;;21.68;56.26
43838;BME280;65998;46.256;7.534;2023-07-08T09:37:34;87604.03;;;21.71;56.18
43838;BME280;65998;46.256;7.534;2023-07-08T09:42:52;87594.03;;;21.76;56.41
43838;BME280;65998;46.256;7.534;2023-07-08T09:45:24;87602.34;;;21.78;55.96
43838;BME280;65998;46.256;7.534;2023-07-08T09:47:56;87605.81;;;21.78;55.19
43838;BME280;65998;46.256;7.534;2023-07-08T09:50:25;87593.88;;;21.80;55.77
43838;BME280;65998;46.256;7.534;2023-07-08T09:52:54;87609.81;;;21.83;56.54
43838;BME280;65998;46.256;7.534;2023-07-08T09:55:20;87605.56;;;21.84;56.28
43838;BME280;65998;46.256;7.534;2023-07-08T09:57:48;87592.97;;;21.85;56.50
43838;BME280;65998;46.256;7.534;2023-07-08T10:00:34;87598.56;;;21.85;55.57
43838;BME280;65998;46.256;7.534;2023-07-08T10:03:36;87599.84;;;21.88;55.56
43838;BME280;65998;46.256;7.534;2023-07-08T10:06:16;87600.50;;;21.89;55.77
43838;BME280;65998;46.256;7.534;2023-07-08T10:08:44;87599.06;;;21.90;55.68
43838;BME280;65998;46.256;7.534;2023-07-08T10:13:46;87614.41;;;21.91;54.47
43838;BME280;65998;46.256;7.534;2023-07-08T10:16:23;87603.41;;;21.87;54.67
43838;BME280;65998;46.256;7.534;2023-07-08T10:18:50;87604.75;;;21.88;54.57
43838;BME280;65998;46.256;7.534;2023-07-08T10:24:30;87601.97;;;21.88;54.16
43838;BME280;65998;46.256;7.534;2023-07-08T10:26:51;87606.78;;;21.89;54.34
43838;BME280;65998;46.256;7.534;2023-07-08T10:32:23;87605.09;;;21.96;54.77
43838;BME280;65998;46.256;7.534;2023-07-08T10:56:20;87588.06;;;21.86;64.21
43838;BME280;65998;46.256;7.534;2023-07-08T11:09:56;87577.91;;;22.28;61.87
43838;BME280;65998;46.256;7.534;2023-07-08T11:15:35;87578.81;;;22.56;67.92
43838;BME280;65998;46.256;7.534;2023-07-08T11:18:39;87569.38;;;22.64;66.74
43838;BME280;65998;46.256;7.534;2023-07-08T11:21:00;87569.41;;;22.79;67.42
43838;BME280;65998;46.256;7.534;2023-07-08T11:23:41;87566.78;;;22.91;65.22
43838;BME280;65998;46.256;7.534;2023-07-08T11:26:19;87565.66;;;23.01;62.79
43838;BME280;65998;46.256;7.534;2023-07-08T11:28:52;87560.25;;;23.12;59.10
43838;BME280;65998;46.256;7.534;2023-07-08T11:31:20;87569.66;;;23.21;58.66
43838;BME280;65998;46.256;7.534;2023-07-08T11:33:48;87569.38;;;23.27;59.80
43838;BME280;65998;46.256;7.534;2023-07-08T11:36:14;87560.88;;;23.29;60.82
43838;BME280;65998;46.256;7.534;2023-07-08T11:38:48;87567.84;;;23.30;61.02
43838;BME280;65998;46.256;7.534;2023-07-08T11:41:17;87567.25;;;23.28;61.11
43838;BME280;65998;46.256;7.534;2023-07-08T11:43:56;87564.53;;;23.25;61.55
43838;BME280;65998;46.256;7.534;2023-07-08T11:46:27;87556.31;;;23.21;61.64
43838;BME280;65998;46.256;7.534;2023-07-08T11:48:56;87555.16;;;23.16;62.15
43838;BME280;65998;46.256;7.534;2023-07-08T11:51:29;87546.94;;;23.12;62.07
43838;BME280;65998;46.256;7.534;2023-07-08T11:54:10;87545.66;;;23.09;62.05
43838;BME280;65998;46.256;7.534;2023-07-08T11:59:26;87546.63;;;23.04;61.84
43838;BME280;65998;46.256;7.534;2023-07-08T12:02:02;87539.06;;;23.00;61.78
43838;BME280;65998;46.256;7.534;2023-07-08T12:04:33;87544.09;;;22.98;61.53
43838;BME280;65998;46.256;7.534;2023-07-08T12:09:39;87528.91;;;22.92;61.78
43838;BME280;65998;46.256;7.534;2023-07-08T12:12:29;87536.06;;;22.89;61.55
43838;BME280;65998;46.256;7.534;2023-07-08T12:15:07;87535.44;;;22.87;61.30
43838;BME280;65998;46.256;7.534;2023-07-08T12:17:37;87534.19;;;22.84;61.65
43838;BME280;65998;46.256;7.534;2023-07-08T12:20:13;87532.25;;;22.80;61.58
43838;BME280;65998;46.256;7.534;2023-07-08T12:22:41;87528.84;;;22.78;61.34
43838;BME280;65998;46.256;7.534;2023-07-08T12:25:20;87529.59;;;22.76;61.42
43838;BME280;65998;46.256;7.534;2023-07-08T12:27:46;87533.94;;;22.73;61.35
43838;BME280;65998;46.256;7.534;2023-07-08T12:30:14;87525.63;;;22.71;61.15
43838;BME280;65998;46.256;7.534;2023-07-08T12:32:41;87528.53;;;22.69;61.41
43838;BME280;65998;46.256;7.534;2023-07-08T12:35:29;87526.50;;;22.68;61.45
43838;BME280;65998;46.256;7.534;2023-07-08T12:37:59;87523.09;;;22.65;61.22
43838;BME280;65998;46.256;7.534;2023-07-08T12:40:28;87509.19;;;22.63;61.37
43838;BME280;65998;46.256;7.534;2023-07-08T12:42:56;87517.69;;;22.61;61.13
43838;BME280;65998;46.256;7.534;2023-07-08T12:45:24;87514.88;;;22.61;61.45
43838;BME280;65998;46.256;7.534;2023-07-08T12:47:49;87518.44;;;22.59;61.36
43838;BME280;65998;46.256;7.534;2023-07-08T12:50:16;87514.38;;;22.56;60.93
43838;BME280;65998;46.256;7.534;2023-07-08T12:52:44;87513.03;;;22.55;61.02
43838;BME280;65998;46.256;7.534;2023-07-08T12:55:12;87519.41;;;22.54;61.13
43838;BME280;65998;46.256;7.534;2023-07-08T12:57:41;87514.56;;;22.52;61.30
43838;BME280;65998;46.256;7.534;2023-07-08T13:00:15;87511.75;;;22.52;61.18
43838;BME280;65998;46.256;7.534;2023-07-08T13:02:45;87507.59;;;22.51;61.05
43838;BME280;65998;46.256;7.534;2023-07-08T13:05:12;87511.16;;;22.50;61.38
43838;BME280;65998;46.256;7.534;2023-07-08T13:07:41;87516.88;;;22.48;61.05
43838;BME280;65998;46.256;7.534;2023-07-08T13:10:17;87510.59;;;22.47;60.92
43838;BME280;65998;46.256;7.534;2023-07-08T13:12:44;87514.84;;;22.46;60.88
43838;BME280;65998;46.256;7.534;2023-07-08T13:15:19;87504.31;;;22.47;60.89
43838;BME280;65998;46.256;7.534;2023-07-08T13:17:47;87507.88;;;22.45;61.04
43838;BME280;65998;46.256;7.534;2023-07-08T13:20:14;87512.13;;;22.44;60.79
43838;BME280;65998;46.256;7.534;2023-07-08T13:22:42;87509.31;;;22.44;60.80
43838;BME280;65998;46.256;7.534;2023-07-08T13:25:14;87511.44;;;22.44;60.62
43838;BME280;65998;46.256;7.534;2023-07-08T13:27:41;87512.88;;;22.43;60.67
43838;BME280;65998;46.256;7.534;2023-07-08T13:30:17;87510.75;;;22.43;60.81
43838;BME280;65998;46.256;7.534;2023-07-08T13:32:45;87517.13;;;22.42;60.45
43838;BME280;65998;46.256;7.534;2023-07-08T13:35:22;87517.13;;;22.42;60.43
43838;BME280;65998;46.256;7.534;2023-07-08T13:37:48;87513.66;;;22.41;60.37
43838;BME280;65998;46.256;7.534;2023-07-08T13:40:14;87516.47;;;22.41;59.95
43838;BME280;65998;46.256;7.534;2023-07-08T13:42:47;87516.47;;;22.41;59.91
43838;BME280;65998;46.256;7.534;2023-07-08T13:45:16;87513.66;;;22.41;59.75
43838;BME280;65998;46.256;7.534;2023-07-08T13:47:43;87515.78;;;22.41;59.69
43838;BME280;65998;46.256;7.534;2023-07-08T13:50:25;87523.50;;;22.40;59.68
43838;BME280;65998;46.256;7.534;2023-07-08T13:52:55;87515.09;;;22.40;59.75
43838;BME280;65998;46.256;7.534;2023-07-08T13:55:23;87512.31;;;22.40;59.45
43838;BME280;65998;46.256;7.534;2023-07-08T13:58:00;87512.31;;;22.40;59.67
43838;BME280;65998;46.256;7.534;2023-07-08T14:00:30;87512.31;;;22.40;59.57
43838;BME280;65998;46.256;7.534;2023-07-08T14:02:57;87505.34;;;22.39;59.46
43838;BME280;65998;46.256;7.534;2023-07-08T14:05:23;87510.94;;;22.39;59.36
43838;BME280;65998;46.256;7.534;2023-07-08T14:07:49;87510.25;;;22.39;59.31
43838;BME280;65998;46.256;7.534;2023-07-08T14:10:15;87508.16;;;22.39;59.28
43838;BME280;65998;46.256;7.534;2023-07-08T14:12:41;87515.88;;;22.39;59.25
43838;BME280;65998;46.256;7.534;2023-07-08T14:15:08;87513.75;;;22.39;59.00
43838;BME280;65998;46.256;7.534;2023-07-08T14:17:35;87516.53;;;22.39;58.76
43838;BME280;65998;46.256;7.534;2023-07-08T14:20:15;87509.59;;;22.38;58.98
43838;BME280;65998;46.256;7.534;2023-07-08T14:22:41;87513.06;;;22.39;58.91
43838;BME280;65998;46.256;7.534;2023-07-08T14:25:09;87513.06;;;22.39;59.00
43838;BME280;65998;46.256;7.534;2023-07-08T14:27:35;87520.78;;;22.38;58.58